Eddyville, Illinois
Current Conditions -  °F | °C
As of 1:35 PM on Sunday 23 Nov 2014 (Local Time) from KHSB Reporting Station
Moderate Rain Moderate Rain  
Wind Chill: 55°   Ceiling: 1500
Heat Index: 55°   Visibility: 4mi
Dew Point: 54°   Wind: 7mph
Humidity: 97%   Direction: 140°SE
Pressure: 29.51"   Gusts: NA
Location:  37.5°N, 88.59°W
Report Text: KHSB 231935Z AUTO 14006KT 4SM RA OVC015 13/12 A2951 RMK AO2 P0005 T01250121
Loading
Personal Weather Stations






























Interactive Weather Map New forecast layout! Learn more

10-Day Weather Forecast

Advertisements
Track Severe Weather on mobile